createdAt,value
2022-12-16T00:02:24.730Z,89.94
2022-12-16T00:04:51.410Z,89.12
2022-12-16T00:07:18.089Z,89.13
2022-12-16T00:09:44.702Z,87.96
2022-12-16T00:12:11.311Z,89.32
2022-12-16T00:14:37.861Z,89.25
2022-12-16T00:17:04.433Z,90.13
2022-12-16T00:19:31.636Z,90.78
2022-12-16T00:21:58.330Z,89.51
2022-12-16T00:24:24.929Z,88.79
2022-12-16T00:26:52.389Z,89.94
2022-12-16T00:29:20.121Z,90.00
2022-12-16T00:31:48.175Z,88.39
2022-12-16T00:34:16.046Z,88.05
2022-12-16T00:36:43.596Z,87.57
2022-12-16T00:39:10.999Z,86.88
2022-12-16T00:41:37.833Z,86.45
2022-12-16T00:44:04.908Z,85.84
2022-12-16T00:46:31.528Z,86.39
2022-12-16T00:48:58.203Z,84.95
2022-12-16T00:51:24.812Z,83.73
2022-12-16T00:53:51.745Z,81.60
2022-12-16T00:56:18.508Z,80.96
2022-12-16T00:58:45.098Z,80.03
2022-12-16T01:01:11.967Z,79.40
2022-12-16T01:03:39.761Z,79.30
2022-12-16T01:06:15.875Z,80.04
2022-12-16T01:08:48.600Z,78.77
2022-12-16T01:11:17.646Z,79.47
2022-12-16T01:13:44.903Z,79.55
2022-12-16T01:16:11.493Z,77.71
2022-12-16T01:18:38.372Z,78.56
2022-12-16T01:21:12.011Z,78.30
2022-12-16T01:23:38.577Z,77.94
2022-12-16T01:26:06.116Z,79.16
2022-12-16T01:28:32.701Z,78.45
2022-12-16T01:31:04.000Z,76.56
2022-12-16T01:33:33.099Z,79.82
2022-12-16T01:36:06.850Z,78.65
2022-12-16T01:38:33.494Z,77.51
2022-12-16T01:41:00.332Z,77.44
2022-12-16T01:43:33.787Z,76.99
2022-12-16T01:46:05.790Z,78.14
2022-12-16T01:48:39.594Z,77.61
2022-12-16T01:51:12.006Z,77.63
2022-12-16T01:53:42.487Z,77.75
2022-12-16T01:56:12.705Z,76.27
2022-12-16T01:58:41.193Z,77.96
2022-12-16T02:01:07.967Z,77.37
2022-12-16T02:03:36.876Z,77.75
2022-12-16T02:06:06.166Z,77.52
2022-12-16T02:08:32.963Z,76.91
2022-12-16T02:11:18.373Z,76.45
2022-12-16T02:14:00.052Z,76.66
2022-12-16T02:17:06.785Z,76.45
2022-12-16T02:20:06.273Z,77.38
2022-12-16T02:22:51.608Z,76.78
2022-12-16T02:25:21.333Z,76.93
2022-12-16T02:28:10.170Z,77.26
2022-12-16T02:31:19.931Z,77.61
2022-12-16T02:34:05.255Z,76.35
2022-12-16T02:36:45.275Z,76.60
2022-12-16T02:39:39.607Z,75.73
2022-12-16T02:42:42.267Z,77.63
2022-12-16T02:45:21.756Z,77.91
2022-12-16T02:47:48.750Z,77.88
2022-12-16T02:50:26.116Z,77.88
2022-12-16T02:52:55.395Z,77.65
2022-12-16T02:55:32.810Z,77.48
2022-12-16T02:58:29.183Z,77.67
2022-12-16T03:01:07.729Z,76.80
2022-12-16T03:03:58.333Z,78.75
2022-12-16T03:06:27.385Z,77.72
2022-12-16T03:08:57.818Z,78.78
2022-12-16T03:11:28.374Z,79.38
2022-12-16T03:13:56.966Z,79.91
2022-12-16T03:16:27.822Z,79.58
2022-12-16T03:18:59.547Z,78.89
2022-12-16T03:21:31.677Z,77.81
2022-12-16T03:24:01.942Z,77.88
2022-12-16T03:26:34.571Z,78.01
2022-12-16T03:29:09.222Z,78.31
2022-12-16T03:31:58.329Z,79.52
2022-12-16T03:34:36.811Z,78.38
2022-12-16T03:37:07.440Z,77.73
2022-12-16T03:39:39.647Z,77.45
2022-12-16T03:42:06.986Z,78.66
2022-12-16T03:44:35.938Z,78.09
2022-12-16T03:47:02.566Z,77.92
2022-12-16T03:49:29.378Z,78.21
2022-12-16T03:51:56.457Z,77.25
2022-12-16T03:54:24.249Z,78.67
2022-12-16T03:56:50.824Z,78.59
2022-12-16T03:59:17.628Z,79.09
2022-12-16T04:01:44.420Z,78.34
2022-12-16T04:04:11.250Z,77.40
2022-12-16T04:06:37.847Z,78.76
2022-12-16T04:09:04.454Z,77.46
2022-12-16T04:11:49.858Z,78.11
2022-12-16T04:14:35.190Z,77.58
2022-12-16T04:17:20.356Z,78.68
2022-12-16T04:20:06.634Z,78.45
2022-12-16T04:22:58.480Z,79.49
2022-12-16T04:25:29.924Z,79.12
2022-12-16T04:27:58.684Z,79.75
2022-12-16T04:30:28.049Z,79.95
2022-12-16T04:33:23.846Z,79.18
2022-12-16T04:36:09.014Z,79.62
2022-12-16T04:38:55.100Z,78.59
2022-12-16T04:41:40.090Z,79.17
2022-12-16T04:44:25.252Z,79.23
2022-12-16T04:47:10.753Z,80.13
2022-12-16T04:49:55.821Z,78.81
2022-12-16T04:52:41.053Z,78.54
2022-12-16T04:55:26.966Z,79.12
2022-12-16T04:58:18.002Z,81.42
2022-12-16T05:01:04.672Z,79.88
2022-12-16T05:03:49.946Z,79.74
2022-12-16T05:06:35.664Z,78.22
2022-12-16T05:09:22.054Z,78.35
2022-12-16T05:12:07.390Z,78.25
2022-12-16T05:14:52.759Z,79.76
2022-12-16T05:17:38.636Z,79.76
2022-12-16T05:20:24.789Z,80.02
2022-12-16T05:23:10.079Z,79.61
2022-12-16T05:25:55.372Z,77.98
2022-12-16T05:28:40.517Z,78.62
2022-12-16T05:31:25.783Z,79.78
2022-12-16T05:34:11.103Z,78.35
2022-12-16T05:36:56.283Z,78.30
2022-12-16T05:39:41.610Z,79.00
2022-12-16T05:42:26.587Z,78.77
2022-12-16T05:45:11.823Z,78.93
2022-12-16T05:47:58.572Z,77.04
2022-12-16T05:50:43.734Z,78.41
2022-12-16T05:53:29.584Z,78.04
2022-12-16T05:56:15.135Z,77.59
2022-12-16T05:59:00.469Z,77.46
2022-12-16T06:01:45.686Z,77.64
2022-12-16T06:04:31.203Z,76.83
2022-12-16T06:07:16.369Z,77.74
2022-12-16T06:10:01.362Z,78.57
2022-12-16T06:12:46.669Z,78.59
2022-12-16T06:15:31.734Z,78.64
2022-12-16T06:18:17.073Z,79.31
2022-12-16T06:21:02.814Z,78.38
2022-12-16T06:23:48.205Z,78.08
2022-12-16T06:26:33.341Z,77.36
2022-12-16T06:29:18.641Z,78.45
2022-12-16T06:32:03.890Z,78.19
2022-12-16T06:34:49.024Z,77.44
2022-12-16T06:37:34.422Z,78.52
2022-12-16T06:40:19.318Z,79.82
2022-12-16T06:43:04.631Z,76.52
2022-12-16T06:45:49.888Z,77.36
2022-12-16T06:48:35.061Z,77.34
2022-12-16T06:51:20.307Z,77.03
2022-12-16T06:54:05.528Z,77.76
2022-12-16T06:56:50.573Z,77.84
2022-12-16T06:59:35.752Z,80.82
2022-12-16T07:02:20.989Z,79.00
2022-12-16T07:05:06.680Z,78.19
2022-12-16T07:07:52.435Z,79.91
2022-12-16T07:10:37.461Z,77.00
2022-12-16T07:13:22.568Z,78.02
2022-12-16T07:16:07.620Z,77.89
2022-12-16T07:18:53.025Z,76.83
2022-12-16T07:21:38.465Z,79.35
2022-12-16T07:24:23.933Z,77.04
2022-12-16T07:27:08.931Z,77.04
2022-12-16T07:29:54.185Z,78.30
2022-12-16T07:32:39.373Z,77.35
2022-12-16T07:35:24.573Z,77.11
2022-12-16T07:38:09.902Z,77.65
2022-12-16T07:40:55.034Z,78.51
2022-12-16T07:43:40.229Z,77.69
2022-12-16T07:46:25.732Z,77.34
2022-12-16T07:49:10.913Z,78.00
2022-12-16T07:51:56.054Z,77.79
2022-12-16T07:54:48.806Z,76.96
2022-12-16T07:57:33.752Z,76.31
2022-12-16T08:00:18.894Z,75.80
2022-12-16T08:03:04.102Z,76.71
2022-12-16T08:05:49.337Z,76.08
2022-12-16T08:08:34.238Z,75.88
2022-12-16T08:11:19.504Z,75.18
2022-12-16T08:14:04.567Z,75.52
2022-12-16T08:16:49.985Z,75.80
2022-12-16T08:19:35.333Z,75.85
2022-12-16T08:22:20.638Z,76.14
2022-12-16T08:25:06.023Z,75.09
2022-12-16T08:27:51.189Z,76.51
2022-12-16T08:30:36.488Z,75.70
2022-12-16T08:33:22.679Z,76.31
2022-12-16T08:36:07.919Z,75.79
2022-12-16T08:38:53.658Z,76.41
2022-12-16T08:41:41.157Z,75.65
2022-12-16T08:44:26.509Z,74.81
2022-12-16T08:47:11.754Z,75.45
2022-12-16T08:49:59.843Z,74.29
2022-12-16T08:52:47.766Z,73.81
2022-12-16T08:55:33.226Z,74.05
2022-12-16T08:58:18.390Z,74.13
2022-12-16T09:01:07.402Z,74.46
2022-12-16T09:03:54.081Z,75.45
2022-12-16T09:06:40.987Z,74.01
2022-12-16T09:09:27.803Z,74.30
2022-12-16T09:12:13.087Z,73.69
2022-12-16T09:14:58.380Z,74.14
2022-12-16T09:17:43.776Z,75.48
2022-12-16T09:20:29.484Z,74.90
2022-12-16T09:23:14.746Z,74.59
2022-12-16T09:25:59.911Z,73.04
2022-12-16T09:28:45.110Z,74.72
2022-12-16T09:31:30.509Z,75.50
2022-12-16T09:34:15.883Z,75.39
2022-12-16T09:37:01.109Z,76.50
2022-12-16T09:39:46.301Z,75.99
2022-12-16T09:42:37.644Z,74.66
2022-12-16T09:45:31.313Z,75.35
2022-12-16T09:48:30.737Z,75.35
2022-12-16T09:51:21.049Z,75.82
2022-12-16T09:54:08.845Z,76.06
2022-12-16T09:56:55.525Z,74.48
2022-12-16T09:59:48.372Z,74.29
2022-12-16T10:02:36.271Z,75.65
2022-12-16T10:05:22.281Z,75.82
2022-12-16T10:08:19.138Z,76.91
2022-12-16T10:11:22.871Z,76.00
2022-12-16T10:14:19.722Z,77.43
2022-12-16T10:17:24.942Z,76.32
2022-12-16T10:20:25.083Z,76.17
2022-12-16T10:23:28.890Z,76.30
2022-12-16T10:26:20.490Z,75.49
2022-12-16T10:29:17.217Z,75.68
2022-12-16T10:32:02.375Z,75.83
2022-12-16T10:34:49.553Z,76.33
2022-12-16T10:37:40.547Z,76.52
2022-12-16T10:40:32.965Z,76.03
2022-12-16T10:43:23.781Z,76.01
2022-12-16T10:46:12.596Z,75.66
2022-12-16T10:48:57.951Z,75.92
2022-12-16T10:51:46.369Z,76.01
2022-12-16T10:54:50.659Z,77.26
2022-12-16T10:57:53.534Z,75.66
2022-12-16T11:00:56.421Z,75.08
2022-12-16T11:03:50.905Z,74.96
2022-12-16T11:06:57.827Z,75.55
2022-12-16T11:09:47.682Z,75.35
2022-12-16T11:12:43.618Z,75.28
2022-12-16T11:15:42.182Z,75.85
2022-12-16T11:18:40.672Z,74.90
2022-12-16T11:21:38.010Z,75.66
2022-12-16T11:24:26.033Z,74.83
2022-12-16T11:27:18.245Z,74.87
2022-12-16T11:30:19.948Z,76.78
2022-12-16T11:33:17.778Z,76.53
2022-12-16T11:36:14.209Z,76.27
2022-12-16T11:39:03.866Z,74.87
2022-12-16T11:41:57.025Z,75.99
2022-12-16T11:44:52.071Z,75.60
2022-12-16T11:47:59.068Z,75.58
2022-12-16T11:50:47.420Z,75.13
2022-12-16T11:53:41.277Z,75.77
2022-12-16T11:56:33.904Z,76.18
2022-12-16T11:59:28.387Z,76.03
2022-12-16T12:02:20.882Z,76.09
2022-12-16T12:05:08.851Z,76.36
2022-12-16T12:08:09.825Z,75.66
2022-12-16T12:11:24.511Z,74.81
2022-12-16T12:14:19.013Z,75.66
2022-12-16T12:17:23.335Z,75.09
2022-12-16T12:20:24.288Z,75.15
2022-12-16T12:23:09.602Z,75.34
2022-12-16T12:26:01.049Z,75.32
2022-12-16T12:29:09.246Z,75.71
2022-12-16T12:32:18.785Z,75.71
2022-12-16T12:35:27.581Z,74.65
2022-12-16T12:38:45.605Z,75.62
2022-12-16T12:41:38.333Z,74.92
2022-12-16T12:44:48.618Z,75.33
2022-12-16T12:47:36.404Z,75.48
2022-12-16T12:50:27.193Z,76.07
2022-12-16T12:53:43.400Z,76.05
2022-12-16T12:56:43.873Z,76.16
2022-12-16T12:59:41.254Z,75.68
2022-12-16T13:02:33.757Z,76.04
2022-12-16T13:05:24.394Z,76.01
2022-12-16T13:08:10.356Z,76.02
2022-12-16T13:10:58.733Z,76.29
2022-12-16T13:13:52.267Z,76.99
2022-12-16T13:17:03.733Z,75.94
2022-12-16T13:19:48.995Z,76.40
2022-12-16T13:22:55.938Z,76.97
2022-12-16T13:26:10.952Z,76.09
2022-12-16T13:28:59.771Z,76.44
2022-12-16T13:31:47.518Z,76.95
2022-12-16T13:34:32.926Z,76.48
2022-12-16T13:37:28.314Z,77.14
2022-12-16T13:40:25.344Z,76.74
2022-12-16T13:43:12.615Z,77.48
2022-12-16T13:46:25.277Z,77.35
2022-12-16T13:49:10.443Z,77.78
2022-12-16T13:51:55.776Z,77.25
2022-12-16T13:54:49.595Z,77.78
2022-12-16T13:57:38.010Z,77.11
2022-12-16T14:00:36.584Z,77.79
2022-12-16T14:03:28.924Z,77.74
2022-12-16T14:06:14.219Z,77.38
2022-12-16T14:08:59.895Z,78.15
2022-12-16T14:12:09.854Z,77.79
2022-12-16T14:15:04.568Z,78.08
2022-12-16T14:18:04.498Z,78.01
2022-12-16T14:21:07.939Z,79.07
2022-12-16T14:24:07.537Z,78.24
2022-12-16T14:26:57.140Z,78.53
2022-12-16T14:29:46.331Z,79.04
2022-12-16T14:32:37.931Z,78.76
2022-12-16T14:35:31.252Z,77.24
2022-12-16T14:38:16.954Z,76.21
2022-12-16T14:41:17.889Z,77.50
2022-12-16T14:44:03.016Z,78.70
2022-12-16T14:46:50.452Z,80.45
2022-12-16T14:49:42.260Z,79.97
2022-12-16T14:52:44.882Z,81.86
2022-12-16T14:55:47.973Z,80.40
2022-12-16T14:58:34.937Z,81.16
2022-12-16T15:01:42.750Z,82.81
2022-12-16T15:04:36.098Z,82.22
2022-12-16T15:07:30.837Z,82.11
2022-12-16T15:10:18.259Z,81.97
2022-12-16T15:13:06.697Z,81.85
2022-12-16T15:15:57.295Z,82.92
2022-12-16T15:18:57.125Z,81.08
2022-12-16T15:21:43.029Z,81.95
2022-12-16T15:24:34.489Z,83.16
2022-12-16T15:27:54.865Z,79.85
2022-12-16T15:30:52.143Z,81.00
2022-12-16T15:33:40.450Z,81.01
2022-12-16T15:36:41.070Z,79.92
2022-12-16T15:39:37.203Z,82.52
2022-12-16T15:42:22.875Z,82.12
2022-12-16T15:45:10.898Z,81.32
2022-12-16T15:47:57.113Z,79.29
2022-12-16T15:50:45.889Z,79.26
2022-12-16T15:53:51.243Z,81.46
2022-12-16T15:56:42.669Z,81.39
2022-12-16T15:59:44.955Z,81.31
2022-12-16T16:02:38.483Z,81.77
2022-12-16T16:05:43.286Z,82.77
2022-12-16T16:08:29.995Z,81.22
2022-12-16T16:11:15.243Z,80.45
2022-12-16T16:14:06.135Z,81.23
2022-12-16T16:16:52.779Z,80.22
2022-12-16T16:19:44.844Z,80.80
2022-12-16T16:22:36.481Z,82.56
2022-12-16T16:25:22.667Z,82.03
2022-12-16T16:28:08.947Z,80.22
2022-12-16T16:30:55.205Z,80.17
2022-12-16T16:33:40.477Z,80.58
2022-12-16T16:36:33.305Z,82.70
2022-12-16T16:39:19.096Z,82.40
2022-12-16T16:42:05.165Z,81.73
2022-12-16T16:44:50.404Z,80.50
2022-12-16T16:47:36.585Z,79.71
2022-12-16T16:50:25.814Z,79.36
2022-12-16T16:53:11.397Z,83.59
2022-12-16T16:55:58.632Z,82.08
2022-12-16T16:58:47.581Z,82.82
2022-12-16T17:01:36.293Z,80.58
2022-12-16T17:04:22.276Z,80.14
2022-12-16T17:07:08.093Z,79.08
2022-12-16T17:09:53.488Z,80.08
2022-12-16T17:12:44.972Z,79.85
2022-12-16T17:15:38.694Z,81.69
2022-12-16T17:18:25.182Z,78.55
2022-12-16T17:21:10.924Z,79.94
2022-12-16T17:23:56.674Z,79.83
2022-12-16T17:26:42.463Z,79.72
2022-12-16T17:29:37.765Z,80.82
2022-12-16T17:32:22.989Z,80.00
2022-12-16T17:35:08.141Z,80.36
2022-12-16T17:37:53.324Z,80.26
2022-12-16T17:40:38.614Z,80.53
2022-12-16T17:43:23.823Z,79.51
2022-12-16T17:46:21.749Z,79.08
2022-12-16T17:49:12.596Z,79.79
2022-12-16T17:51:59.049Z,79.02
2022-12-16T17:54:45.056Z,79.44
2022-12-16T17:57:30.928Z,80.49
2022-12-16T18:00:16.443Z,79.02
2022-12-16T18:03:01.705Z,79.84
2022-12-16T18:05:47.603Z,79.62
2022-12-16T18:08:32.425Z,78.69
2022-12-16T18:11:18.235Z,78.61
2022-12-16T18:14:03.494Z,78.91
2022-12-16T18:16:49.320Z,81.09
2022-12-16T18:19:35.157Z,78.91
2022-12-16T18:22:20.753Z,78.93
2022-12-16T18:25:06.567Z,77.87
2022-12-16T18:27:53.869Z,78.21
2022-12-16T18:30:39.523Z,78.42
2022-12-16T18:33:24.815Z,80.44
2022-12-16T18:36:10.021Z,80.12
2022-12-16T18:38:55.296Z,77.49
2022-12-16T18:41:41.187Z,78.83
2022-12-16T18:44:30.847Z,78.57
2022-12-16T18:47:15.995Z,80.46
2022-12-16T18:50:01.234Z,80.11
2022-12-16T18:52:46.841Z,79.40
2022-12-16T18:55:32.138Z,79.40
2022-12-16T18:58:42.824Z,78.68
2022-12-16T19:01:25.555Z,78.59
2022-12-16T19:04:11.159Z,78.07
2022-12-16T19:06:56.970Z,78.38
2022-12-16T19:09:42.056Z,78.23
2022-12-16T19:12:27.326Z,78.31
2022-12-16T19:15:12.520Z,80.37
2022-12-16T19:17:57.681Z,78.65
2022-12-16T19:20:57.634Z,78.06
2022-12-16T19:23:42.714Z,77.58
2022-12-16T19:26:28.203Z,77.99
2022-12-16T19:29:13.495Z,78.60
2022-12-16T19:31:58.898Z,78.10
2022-12-16T19:34:44.700Z,77.64
2022-12-16T19:37:29.873Z,79.81
2022-12-16T19:40:15.124Z,77.70
2022-12-16T19:43:00.054Z,78.70
2022-12-16T19:45:45.298Z,77.71
2022-12-16T19:48:30.445Z,78.22
2022-12-16T19:51:20.828Z,79.52
2022-12-16T19:54:06.631Z,78.84
2022-12-16T19:56:52.758Z,79.27
2022-12-16T19:59:41.033Z,78.96
2022-12-16T20:02:30.602Z,79.61
2022-12-16T20:05:16.401Z,78.28
2022-12-16T20:08:01.524Z,78.08
2022-12-16T20:10:46.731Z,77.76
2022-12-16T20:13:31.864Z,78.63
2022-12-16T20:16:32.738Z,78.26
2022-12-16T20:19:18.543Z,76.97
2022-12-16T20:25:09.806Z,78.81
2022-12-16T20:27:55.287Z,78.76
2022-12-16T20:30:41.821Z,78.73
2022-12-16T20:33:36.583Z,79.22
2022-12-16T20:36:24.478Z,78.77
2022-12-16T20:39:10.112Z,79.27
2022-12-16T20:41:55.958Z,79.30
2022-12-16T20:44:42.107Z,78.76
2022-12-16T20:47:27.460Z,79.17
2022-12-16T20:50:13.147Z,79.58
2022-12-16T20:52:58.621Z,79.42
2022-12-16T20:55:44.019Z,80.83
2022-12-16T20:58:29.104Z,81.98
2022-12-16T21:01:14.912Z,80.52
2022-12-16T21:03:59.913Z,81.02
2022-12-16T21:06:45.171Z,80.11
2022-12-16T21:09:30.343Z,81.82
2022-12-16T21:12:15.788Z,83.69
2022-12-16T21:15:00.973Z,85.08
2022-12-16T21:17:46.241Z,85.90
2022-12-16T21:20:31.509Z,87.20
2022-12-16T21:23:21.511Z,87.62
2022-12-16T21:26:06.789Z,88.74
2022-12-16T21:28:52.083Z,90.31
2022-12-16T21:31:37.766Z,92.50
2022-12-16T21:34:23.031Z,92.93
2022-12-16T21:37:11.247Z,92.54
2022-12-16T21:39:56.586Z,92.79
2022-12-16T21:42:44.128Z,93.45
2022-12-16T21:45:30.383Z,92.03
2022-12-16T21:48:15.576Z,92.92
2022-12-16T21:51:00.970Z,95.30
2022-12-16T21:53:46.600Z,95.11
2022-12-16T21:56:32.175Z,94.99
2022-12-16T21:59:17.403Z,94.51
2022-12-16T22:02:02.903Z,96.46
2022-12-16T22:04:48.185Z,97.03
2022-12-16T22:07:33.401Z,97.28
2022-12-16T22:10:18.702Z,97.80
2022-12-16T22:13:03.854Z,96.64
2022-12-16T22:15:49.122Z,96.97
2022-12-16T22:18:35.833Z,97.59
2022-12-16T22:21:23.537Z,97.08
2022-12-16T22:24:09.257Z,96.65
2022-12-16T22:26:54.458Z,96.34
2022-12-16T22:29:41.626Z,96.78
2022-12-16T22:32:26.950Z,96.38
2022-12-16T22:35:12.104Z,97.91
2022-12-16T22:37:57.131Z,95.94
2022-12-16T22:40:42.719Z,94.39
2022-12-16T22:43:28.026Z,94.62
2022-12-16T22:46:18.424Z,97.14
2022-12-16T22:49:05.769Z,95.73
2022-12-16T22:51:51.419Z,96.09
2022-12-16T22:54:36.827Z,96.29
2022-12-16T22:57:21.943Z,95.66
2022-12-16T23:00:07.199Z,95.03
2022-12-16T23:02:52.566Z,95.60
2022-12-16T23:05:39.030Z,95.39
2022-12-16T23:08:24.346Z,96.10
2022-12-16T23:11:17.551Z,93.00
2022-12-16T23:14:03.346Z,92.31
2022-12-16T23:16:48.576Z,91.93
2022-12-16T23:19:33.681Z,91.54
2022-12-16T23:22:18.815Z,90.92
2022-12-16T23:25:03.970Z,90.74
2022-12-16T23:27:49.126Z,91.04
2022-12-16T23:30:44.900Z,90.84
2022-12-16T23:33:30.030Z,91.11
2022-12-16T23:36:15.333Z,90.01
2022-12-16T23:39:00.505Z,89.88
2022-12-16T23:41:45.845Z,89.82
2022-12-16T23:44:30.980Z,89.77
2022-12-16T23:47:16.291Z,89.71
2022-12-16T23:50:01.496Z,90.15
2022-12-16T23:52:46.682Z,89.79
2022-12-16T23:55:31.902Z,89.65
2022-12-16T23:58:18.563Z,90.14
